sensor_id;sensor_type;location;lat;lon;timestamp;temperature;humidity
16271;DHT22;8243;49.048;8.396;2022-09-29T00:00:39;6.40;99.90
16271;DHT22;8243;49.048;8.396;2022-09-29T00:03:05;6.30;99.90
16271;DHT22;8243;49.048;8.396;2022-09-29T00:05:30;6.40;99.90
16271;DHT22;8243;49.048;8.396;2022-09-29T00:07:56;6.50;99.90
16271;DHT22;8243;49.048;8.396;2022-09-29T00:10:28;6.50;99.90
16271;DHT22;8243;49.048;8.396;2022-09-29T00:12:53;6.50;99.90
16271;DHT22;8243;49.048;8.396;2022-09-29T00:15:21;6.40;99.90
16271;DHT22;8243;49.048;8.396;2022-09-29T00:17:46;6.40;99.90
16271;DHT22;8243;49.048;8.396;2022-09-29T00:20:20;6.30;99.90
16271;DHT22;8243;49.048;8.396;2022-09-29T00:22:49;6.30;99.90
16271;DHT22;8243;49.048;8.396;2022-09-29T00:25:16;6.30;99.90
16271;DHT22;8243;49.048;8.396;2022-09-29T00:27:42;6.40;99.90
16271;DHT22;8243;49.048;8.396;2022-09-29T00:30:23;6.40;99.90
16271;DHT22;8243;49.048;8.396;2022-09-29T00:32:48;6.40;99.90
16271;DHT22;8243;49.048;8.396;2022-09-29T00:35:14;6.40;99.90
16271;DHT22;8243;49.048;8.396;2022-09-29T00:37:42;6.40;99.90
16271;DHT22;8243;49.048;8.396;2022-09-29T00:40:08;6.40;99.90
16271;DHT22;8243;49.048;8.396;2022-09-29T00:42:34;6.40;99.90
16271;DHT22;8243;49.048;8.396;2022-09-29T00:45:11;6.50;99.90
16271;DHT22;8243;49.048;8.396;2022-09-29T00:47:40;6.50;99.90
16271;DHT22;8243;49.048;8.396;2022-09-29T00:50:22;6.50;99.90
16271;DHT22;8243;49.048;8.396;2022-09-29T00:52:54;6.60;99.90
16271;DHT22;8243;49.048;8.396;2022-09-29T00:55:36;6.70;99.90
16271;DHT22;8243;49.048;8.396;2022-09-29T00:58:22;6.70;99.90
16271;DHT22;8243;49.048;8.396;2022-09-29T01:00:51;6.90;99.90
16271;DHT22;8243;49.048;8.396;2022-09-29T01:03:19;6.90;99.90
16271;DHT22;8243;49.048;8.396;2022-09-29T01:05:50;7.00;99.90
16271;DHT22;8243;49.048;8.396;2022-09-29T01:10:51;7.00;99.90
16271;DHT22;8243;49.048;8.396;2022-09-29T01:13:19;6.90;99.90
16271;DHT22;8243;49.048;8.396;2022-09-29T01:15:44;6.90;99.90
16271;DHT22;8243;49.048;8.396;2022-09-29T01:18:10;6.90;99.90
16271;DHT22;8243;49.048;8.396;2022-09-29T01:20:50;7.00;99.90
16271;DHT22;8243;49.048;8.396;2022-09-29T01:31:34;6.80;99.90
16271;DHT22;8243;49.048;8.396;2022-09-29T01:34:06;6.80;99.90
16271;DHT22;8243;49.048;8.396;2022-09-29T01:39:39;6.60;99.90
16271;DHT22;8243;49.048;8.396;2022-09-29T01:42:34;6.60;99.90
16271;DHT22;8243;49.048;8.396;2022-09-29T01:45:14;6.50;99.90
16271;DHT22;8243;49.048;8.396;2022-09-29T01:47:55;6.50;99.90
16271;DHT22;8243;49.048;8.396;2022-09-29T01:50:27;6.40;99.90
16271;DHT22;8243;49.048;8.396;2022-09-29T01:52:59;6.40;99.90
16271;DHT22;8243;49.048;8.396;2022-09-29T01:55:29;6.40;99.90
16271;DHT22;8243;49.048;8.396;2022-09-29T01:58:05;6.40;99.90
16271;DHT22;8243;49.048;8.396;2022-09-29T02:00:35;6.30;99.90
16271;DHT22;8243;49.048;8.396;2022-09-29T02:06:06;6.30;99.90
16271;DHT22;8243;49.048;8.396;2022-09-29T02:08:41;6.30;99.90
16271;DHT22;8243;49.048;8.396;2022-09-29T02:11:13;6.40;99.90
16271;DHT22;8243;49.048;8.396;2022-09-29T02:16:14;6.40;99.90
16271;DHT22;8243;49.048;8.396;2022-09-29T02:19:13;6.40;99.90
16271;DHT22;8243;49.048;8.396;2022-09-29T02:21:42;6.40;99.90
16271;DHT22;8243;49.048;8.396;2022-09-29T02:24:09;6.30;99.90
16271;DHT22;8243;49.048;8.396;2022-09-29T02:26:35;6.20;99.90
16271;DHT22;8243;49.048;8.396;2022-09-29T02:29:02;6.20;99.90
16271;DHT22;8243;49.048;8.396;2022-09-29T02:31:29;6.20;99.90
16271;DHT22;8243;49.048;8.396;2022-09-29T02:33:55;6.20;99.90
16271;DHT22;8243;49.048;8.396;2022-09-29T02:47:45;6.50;99.90
16271;DHT22;8243;49.048;8.396;2022-09-29T02:53:03;6.50;99.90
16271;DHT22;8243;49.048;8.396;2022-09-29T02:58:34;6.40;99.90
16271;DHT22;8243;49.048;8.396;2022-09-29T03:01:20;6.30;99.90
16271;DHT22;8243;49.048;8.396;2022-09-29T03:03:46;6.30;99.90
16271;DHT22;8243;49.048;8.396;2022-09-29T03:06:15;6.20;99.90
16271;DHT22;8243;49.048;8.396;2022-09-29T03:08:42;6.20;99.90
16271;DHT22;8243;49.048;8.396;2022-09-29T03:11:08;6.20;99.90
16271;DHT22;8243;49.048;8.396;2022-09-29T03:13:33;6.20;99.90
16271;DHT22;8243;49.048;8.396;2022-09-29T03:16:00;6.30;99.90
16271;DHT22;8243;49.048;8.396;2022-09-29T03:18:26;6.20;99.90
16271;DHT22;8243;49.048;8.396;2022-09-29T03:20:53;6.30;99.90
16271;DHT22;8243;49.048;8.396;2022-09-29T03:23:19;6.20;99.90
16271;DHT22;8243;49.048;8.396;2022-09-29T03:25:45;6.30;99.90
16271;DHT22;8243;49.048;8.396;2022-09-29T03:28:10;6.30;99.90
16271;DHT22;8243;49.048;8.396;2022-09-29T03:30:36;6.30;99.90
16271;DHT22;8243;49.048;8.396;2022-09-29T03:33:02;6.40;99.90
16271;DHT22;8243;49.048;8.396;2022-09-29T03:35:27;6.30;99.90
16271;DHT22;8243;49.048;8.396;2022-09-29T03:37:57;6.40;99.90
16271;DHT22;8243;49.048;8.396;2022-09-29T03:40:23;6.30;99.90
16271;DHT22;8243;49.048;8.396;2022-09-29T03:42:49;6.20;99.90
16271;DHT22;8243;49.048;8.396;2022-09-29T03:45:15;6.20;99.90
16271;DHT22;8243;49.048;8.396;2022-09-29T03:47:41;6.20;99.90
16271;DHT22;8243;49.048;8.396;2022-09-29T03:50:07;6.10;99.90
16271;DHT22;8243;49.048;8.396;2022-09-29T03:52:32;6.10;99.90
16271;DHT22;8243;49.048;8.396;2022-09-29T03:54:58;6.10;99.90
16271;DHT22;8243;49.048;8.396;2022-09-29T03:57:23;6.00;99.90
16271;DHT22;8243;49.048;8.396;2022-09-29T03:59:51;6.00;99.90
16271;DHT22;8243;49.048;8.396;2022-09-29T04:02:19;6.00;99.90
16271;DHT22;8243;49.048;8.396;2022-09-29T04:04:45;6.00;99.90
16271;DHT22;8243;49.048;8.396;2022-09-29T04:07:16;6.00;99.90
16271;DHT22;8243;49.048;8.396;2022-09-29T04:09:42;6.10;99.90
16271;DHT22;8243;49.048;8.396;2022-09-29T04:12:11;6.10;99.90
16271;DHT22;8243;49.048;8.396;2022-09-29T04:14:36;6.00;99.90
16271;DHT22;8243;49.048;8.396;2022-09-29T04:17:02;5.90;99.90
16271;DHT22;8243;49.048;8.396;2022-09-29T04:19:27;5.90;99.90
16271;DHT22;8243;49.048;8.396;2022-09-29T04:21:53;5.90;99.90
16271;DHT22;8243;49.048;8.396;2022-09-29T04:24:19;5.90;99.90
16271;DHT22;8243;49.048;8.396;2022-09-29T04:26:50;5.80;99.90
16271;DHT22;8243;49.048;8.396;2022-09-29T04:29:16;5.90;99.90
16271;DHT22;8243;49.048;8.396;2022-09-29T04:31:41;5.90;99.90
16271;DHT22;8243;49.048;8.396;2022-09-29T04:34:07;5.90;99.90
16271;DHT22;8243;49.048;8.396;2022-09-29T04:36:32;5.90;99.90
16271;DHT22;8243;49.048;8.396;2022-09-29T04:38:58;5.90;99.90
16271;DHT22;8243;49.048;8.396;2022-09-29T04:41:23;5.90;99.90
16271;DHT22;8243;49.048;8.396;2022-09-29T04:43:49;5.90;99.90
16271;DHT22;8243;49.048;8.396;2022-09-29T04:46:15;5.90;99.90
16271;DHT22;8243;49.048;8.396;2022-09-29T04:48:40;6.00;99.90
16271;DHT22;8243;49.048;8.396;2022-09-29T04:51:06;6.00;99.90
16271;DHT22;8243;49.048;8.396;2022-09-29T04:53:35;6.10;99.90
16271;DHT22;8243;49.048;8.396;2022-09-29T04:56:06;6.10;99.90
16271;DHT22;8243;49.048;8.396;2022-09-29T04:58:32;6.10;99.90
16271;DHT22;8243;49.048;8.396;2022-09-29T05:01:06;6.20;99.90
16271;DHT22;8243;49.048;8.396;2022-09-29T05:03:32;6.10;99.90
16271;DHT22;8243;49.048;8.396;2022-09-29T05:05:58;6.20;99.90
16271;DHT22;8243;49.048;8.396;2022-09-29T05:08:23;6.20;99.90
16271;DHT22;8243;49.048;8.396;2022-09-29T05:10:49;6.20;99.90
16271;DHT22;8243;49.048;8.396;2022-09-29T05:13:15;6.30;99.90
16271;DHT22;8243;49.048;8.396;2022-09-29T05:15:41;6.20;99.90
16271;DHT22;8243;49.048;8.396;2022-09-29T05:18:06;6.30;99.90
16271;DHT22;8243;49.048;8.396;2022-09-29T05:20:32;6.30;99.90
16271;DHT22;8243;49.048;8.396;2022-09-29T05:22:58;6.40;99.90
16271;DHT22;8243;49.048;8.396;2022-09-29T05:25:25;6.20;99.90
16271;DHT22;8243;49.048;8.396;2022-09-29T05:27:52;6.30;99.90
16271;DHT22;8243;49.048;8.396;2022-09-29T05:30:17;6.20;99.90
16271;DHT22;8243;49.048;8.396;2022-09-29T05:32:43;6.30;99.90
16271;DHT22;8243;49.048;8.396;2022-09-29T05:35:09;6.20;99.90
16271;DHT22;8243;49.048;8.396;2022-09-29T05:37:34;6.20;99.90
16271;DHT22;8243;49.048;8.396;2022-09-29T05:40:00;6.20;99.90
16271;DHT22;8243;49.048;8.396;2022-09-29T05:42:26;6.30;99.90
16271;DHT22;8243;49.048;8.396;2022-09-29T05:44:52;6.30;99.90
16271;DHT22;8243;49.048;8.396;2022-09-29T05:47:19;6.30;99.90
16271;DHT22;8243;49.048;8.396;2022-09-29T05:49:45;6.40;99.90
16271;DHT22;8243;49.048;8.396;2022-09-29T05:52:10;6.50;99.90
16271;DHT22;8243;49.048;8.396;2022-09-29T05:54:36;6.60;99.90
16271;DHT22;8243;49.048;8.396;2022-09-29T05:57:02;6.80;99.90
16271;DHT22;8243;49.048;8.396;2022-09-29T05:59:27;6.90;99.90
16271;DHT22;8243;49.048;8.396;2022-09-29T06:01:53;7.00;99.90
16271;DHT22;8243;49.048;8.396;2022-09-29T06:04:18;7.10;99.90
16271;DHT22;8243;49.048;8.396;2022-09-29T06:06:44;7.10;99.90
16271;DHT22;8243;49.048;8.396;2022-09-29T06:09:12;7.10;99.90
16271;DHT22;8243;49.048;8.396;2022-09-29T06:11:38;7.10;99.90
16271;DHT22;8243;49.048;8.396;2022-09-29T06:14:04;7.10;99.90
16271;DHT22;8243;49.048;8.396;2022-09-29T06:16:31;7.20;99.90
16271;DHT22;8243;49.048;8.396;2022-09-29T06:18:59;7.30;99.90
16271;DHT22;8243;49.048;8.396;2022-09-29T06:21:26;7.20;99.90
16271;DHT22;8243;49.048;8.396;2022-09-29T06:23:53;7.30;99.90
16271;DHT22;8243;49.048;8.396;2022-09-29T06:26:20;7.50;99.90
16271;DHT22;8243;49.048;8.396;2022-09-29T06:28:46;7.50;99.90
16271;DHT22;8243;49.048;8.396;2022-09-29T06:31:17;7.50;99.90
16271;DHT22;8243;49.048;8.396;2022-09-29T06:33:44;7.70;99.90
16271;DHT22;8243;49.048;8.396;2022-09-29T06:36:20;8.00;99.90
16271;DHT22;8243;49.048;8.396;2022-09-29T06:39:10;8.30;99.90
16271;DHT22;8243;49.048;8.396;2022-09-29T06:41:35;9.10;99.90
16271;DHT22;8243;49.048;8.396;2022-09-29T06:44:02;9.40;99.90
16271;DHT22;8243;49.048;8.396;2022-09-29T06:46:28;9.70;99.90
16271;DHT22;8243;49.048;8.396;2022-09-29T06:48:54;10.40;99.90
16271;DHT22;8243;49.048;8.396;2022-09-29T06:51:31;11.40;99.90
16271;DHT22;8243;49.048;8.396;2022-09-29T06:53:57;11.70;99.90
16271;DHT22;8243;49.048;8.396;2022-09-29T06:56:22;11.70;99.90
16271;DHT22;8243;49.048;8.396;2022-09-29T06:58:50;11.50;99.90
16271;DHT22;8243;49.048;8.396;2022-09-29T07:01:16;11.70;99.90
16271;DHT22;8243;49.048;8.396;2022-09-29T07:03:41;11.90;99.90
16271;DHT22;8243;49.048;8.396;2022-09-29T07:06:09;11.80;99.90
16271;DHT22;8243;49.048;8.396;2022-09-29T07:08:35;12.20;99.90
16271;DHT22;8243;49.048;8.396;2022-09-29T07:11:02;12.10;99.90
16271;DHT22;8243;49.048;8.396;2022-09-29T07:13:28;12.30;99.90
16271;DHT22;8243;49.048;8.396;2022-09-29T07:16:10;12.10;99.90
16271;DHT22;8243;49.048;8.396;2022-09-29T07:18:37;11.80;99.90
16271;DHT22;8243;49.048;8.396;2022-09-29T07:21:04;11.60;99.90
16271;DHT22;8243;49.048;8.396;2022-09-29T07:23:30;11.50;99.90
16271;DHT22;8243;49.048;8.396;2022-09-29T07:25:56;11.20;99.90
16271;DHT22;8243;49.048;8.396;2022-09-29T07:28:22;11.30;99.90
16271;DHT22;8243;49.048;8.396;2022-09-29T07:31:05;11.60;99.90
16271;DHT22;8243;49.048;8.396;2022-09-29T07:33:32;12.50;99.90
16271;DHT22;8243;49.048;8.396;2022-09-29T07:35:57;12.80;99.90
16271;DHT22;8243;49.048;8.396;2022-09-29T07:38:25;12.60;99.90
16271;DHT22;8243;49.048;8.396;2022-09-29T07:40:51;12.50;99.90
16271;DHT22;8243;49.048;8.396;2022-09-29T07:43:17;12.30;99.90
16271;DHT22;8243;49.048;8.396;2022-09-29T07:45:49;12.40;99.90
16271;DHT22;8243;49.048;8.396;2022-09-29T07:48:16;12.50;99.90
16271;DHT22;8243;49.048;8.396;2022-09-29T07:50:42;12.40;99.90
16271;DHT22;8243;49.048;8.396;2022-09-29T07:53:11;12.10;99.90
16271;DHT22;8243;49.048;8.396;2022-09-29T07:55:37;12.10;99.90
16271;DHT22;8243;49.048;8.396;2022-09-29T07:58:03;12.10;99.90
16271;DHT22;8243;49.048;8.396;2022-09-29T08:00:32;12.30;99.90
16271;DHT22;8243;49.048;8.396;2022-09-29T08:03:02;12.20;99.90
16271;DHT22;8243;49.048;8.396;2022-09-29T08:05:29;12.60;99.90
16271;DHT22;8243;49.048;8.396;2022-09-29T08:08:03;13.30;99.90
16271;DHT22;8243;49.048;8.396;2022-09-29T08:10:31;13.40;99.90
16271;DHT22;8243;49.048;8.396;2022-09-29T08:12:57;13.50;99.90
16271;DHT22;8243;49.048;8.396;2022-09-29T08:15:31;13.40;99.90
16271;DHT22;8243;49.048;8.396;2022-09-29T08:17:57;14.10;99.30
16271;DHT22;8243;49.048;8.396;2022-09-29T08:20:22;14.40;92.00
16271;DHT22;8243;49.048;8.396;2022-09-29T08:22:48;14.80;91.10
16271;DHT22;8243;49.048;8.396;2022-09-29T08:25:15;14.90;84.70
16271;DHT22;8243;49.048;8.396;2022-09-29T08:27:41;15.30;80.20
16271;DHT22;8243;49.048;8.396;2022-09-29T08:30:08;15.60;76.70
16271;DHT22;8243;49.048;8.396;2022-09-29T08:32:35;15.60;74.00
16271;DHT22;8243;49.048;8.396;2022-09-29T08:35:01;15.30;78.00
16271;DHT22;8243;49.048;8.396;2022-09-29T08:37:27;15.90;70.90
16271;DHT22;8243;49.048;8.396;2022-09-29T08:39:52;15.50;73.50
16271;DHT22;8243;49.048;8.396;2022-09-29T08:45:24;15.10;74.10
16271;DHT22;8243;49.048;8.396;2022-09-29T08:47:53;14.70;75.80
16271;DHT22;8243;49.048;8.396;2022-09-29T08:50:43;14.20;87.40
16271;DHT22;8243;49.048;8.396;2022-09-29T08:53:14;13.90;92.80
16271;DHT22;8243;49.048;8.396;2022-09-29T08:55:49;14.10;95.70
16271;DHT22;8243;49.048;8.396;2022-09-29T08:58:17;14.10;92.50
16271;DHT22;8243;49.048;8.396;2022-09-29T09:03:55;14.00;94.70
16271;DHT22;8243;49.048;8.396;2022-09-29T09:17:48;13.90;96.60
16271;DHT22;8243;49.048;8.396;2022-09-29T09:20:34;14.20;96.10
16271;DHT22;8243;49.048;8.396;2022-09-29T09:25:52;14.10;95.00
16271;DHT22;8243;49.048;8.396;2022-09-29T09:28:26;14.60;88.40
16271;DHT22;8243;49.048;8.396;2022-09-29T09:30:54;14.90;84.30
16271;DHT22;8243;49.048;8.396;2022-09-29T09:33:33;15.40;77.70
16271;DHT22;8243;49.048;8.396;2022-09-29T09:36:09;15.60;76.60
16271;DHT22;8243;49.048;8.396;2022-09-29T09:41:19;16.30;67.80
16271;DHT22;8243;49.048;8.396;2022-09-29T09:43:48;16.60;61.50
16271;DHT22;8243;49.048;8.396;2022-09-29T09:46:28;16.20;60.20
16271;DHT22;8243;49.048;8.396;2022-09-29T09:49:10;15.90;63.50
16271;DHT22;8243;49.048;8.396;2022-09-29T09:54:39;16.60;59.30
16271;DHT22;8243;49.048;8.396;2022-09-29T10:00:13;17.70;50.60
16271;DHT22;8243;49.048;8.396;2022-09-29T10:02:48;19.20;39.50
16271;DHT22;8243;49.048;8.396;2022-09-29T10:05:22;18.70;38.20
16271;DHT22;8243;49.048;8.396;2022-09-29T10:07:51;19.10;38.30
16271;DHT22;8243;49.048;8.396;2022-09-29T10:10:23;19.20;35.20
16271;DHT22;8243;49.048;8.396;2022-09-29T10:12:59;18.90;38.30
16271;DHT22;8243;49.048;8.396;2022-09-29T10:15:52;18.50;36.40
16271;DHT22;8243;49.048;8.396;2022-09-29T10:18:38;17.70;40.30
16271;DHT22;8243;49.048;8.396;2022-09-29T10:21:21;16.80;47.80
16271;DHT22;8243;49.048;8.396;2022-09-29T10:23:56;16.20;52.00
16271;DHT22;8243;49.048;8.396;2022-09-29T10:26:42;16.20;55.90
16271;DHT22;8243;49.048;8.396;2022-09-29T10:29:27;16.20;54.90
16271;DHT22;8243;49.048;8.396;2022-09-29T10:32:27;16.10;57.80
16271;DHT22;8243;49.048;8.396;2022-09-29T10:35:08;15.60;60.70
16271;DHT22;8243;49.048;8.396;2022-09-29T10:37:47;15.40;63.90
16271;DHT22;8243;49.048;8.396;2022-09-29T10:40:16;15.30;72.70
16271;DHT22;8243;49.048;8.396;2022-09-29T10:42:44;15.80;64.10
16271;DHT22;8243;49.048;8.396;2022-09-29T10:45:25;16.00;61.80
16271;DHT22;8243;49.048;8.396;2022-09-29T10:53:02;15.80;61.80
16271;DHT22;8243;49.048;8.396;2022-09-29T10:55:34;15.20;65.40
16271;DHT22;8243;49.048;8.396;2022-09-29T11:00:45;15.10;68.70
16271;DHT22;8243;49.048;8.396;2022-09-29T11:03:25;15.30;70.00
16271;DHT22;8243;49.048;8.396;2022-09-29T11:05:54;15.90;61.00
16271;DHT22;8243;49.048;8.396;2022-09-29T11:08:22;16.10;60.90
16271;DHT22;8243;49.048;8.396;2022-09-29T11:11:20;16.50;54.90
16271;DHT22;8243;49.048;8.396;2022-09-29T11:13:47;16.80;55.20
16271;DHT22;8243;49.048;8.396;2022-09-29T11:16:16;17.10;52.70
16271;DHT22;8243;49.048;8.396;2022-09-29T11:18:44;17.30;47.50
16271;DHT22;8243;49.048;8.396;2022-09-29T11:30:05;16.90;51.60
16271;DHT22;8243;49.048;8.396;2022-09-29T11:33:01;17.20;51.40
16271;DHT22;8243;49.048;8.396;2022-09-29T11:38:10;17.10;44.90
16271;DHT22;8243;49.048;8.396;2022-09-29T11:40:50;16.80;45.60
16271;DHT22;8243;49.048;8.396;2022-09-29T11:43:55;16.50;50.60
16271;DHT22;8243;49.048;8.396;2022-09-29T11:56:54;15.80;53.70
16271;DHT22;8243;49.048;8.396;2022-09-29T12:01:58;15.80;55.90
16271;DHT22;8243;49.048;8.396;2022-09-29T12:13:08;16.60;48.80
16271;DHT22;8243;49.048;8.396;2022-09-29T12:15:51;16.20;51.20
16271;DHT22;8243;49.048;8.396;2022-09-29T12:18:25;15.90;51.90
16271;DHT22;8243;49.048;8.396;2022-09-29T12:20:53;16.10;53.20
16271;DHT22;8243;49.048;8.396;2022-09-29T12:23:22;16.10;51.30
16271;DHT22;8243;49.048;8.396;2022-09-29T12:26:00;16.00;51.00
16271;DHT22;8243;49.048;8.396;2022-09-29T12:29:11;16.10;50.40
16271;DHT22;8243;49.048;8.396;2022-09-29T12:31:45;16.10;47.20
16271;DHT22;8243;49.048;8.396;2022-09-29T12:34:33;16.10;46.90
16271;DHT22;8243;49.048;8.396;2022-09-29T12:37:00;16.20;46.60
16271;DHT22;8243;49.048;8.396;2022-09-29T12:42:54;16.10;47.70
16271;DHT22;8243;49.048;8.396;2022-09-29T12:48:26;16.20;48.90
16271;DHT22;8243;49.048;8.396;2022-09-29T12:51:00;16.10;47.50
16271;DHT22;8243;49.048;8.396;2022-09-29T12:53:54;16.20;47.10
16271;DHT22;8243;49.048;8.396;2022-09-29T12:56:24;16.30;47.60
16271;DHT22;8243;49.048;8.396;2022-09-29T13:01:46;16.70;40.90
16271;DHT22;8243;49.048;8.396;2022-09-29T13:21:39;16.60;40.20
16271;DHT22;8243;49.048;8.396;2022-09-29T13:26:56;16.80;39.80
16271;DHT22;8243;49.048;8.396;2022-09-29T13:29:28;16.60;40.20
16271;DHT22;8243;49.048;8.396;2022-09-29T13:31:56;16.40;40.10
16271;DHT22;8243;49.048;8.396;2022-09-29T13:34:36;16.10;40.30
16271;DHT22;8243;49.048;8.396;2022-09-29T13:37:24;16.10;41.60
16271;DHT22;8243;49.048;8.396;2022-09-29T13:47:47;16.40;36.90
16271;DHT22;8243;49.048;8.396;2022-09-29T13:50:45;16.40;37.70
16271;DHT22;8243;49.048;8.396;2022-09-29T13:58:35;16.30;38.60
16271;DHT22;8243;49.048;8.396;2022-09-29T14:01:05;16.10;38.90
16271;DHT22;8243;49.048;8.396;2022-09-29T14:03:42;16.10;38.10
16271;DHT22;8243;49.048;8.396;2022-09-29T14:06:17;15.90;39.70
16271;DHT22;8243;49.048;8.396;2022-09-29T14:11:39;16.40;39.00
16271;DHT22;8243;49.048;8.396;2022-09-29T14:14:16;16.60;38.90
16271;DHT22;8243;49.048;8.396;2022-09-29T14:17:08;16.50;41.70
16271;DHT22;8243;49.048;8.396;2022-09-29T14:19:56;16.30;39.70
16271;DHT22;8243;49.048;8.396;2022-09-29T14:25:23;16.30;40.80
16271;DHT22;8243;49.048;8.396;2022-09-29T14:36:17;16.20;46.30
16271;DHT22;8243;49.048;8.396;2022-09-29T14:38:54;16.50;39.90
16271;DHT22;8243;49.048;8.396;2022-09-29T14:41:28;16.50;43.00
16271;DHT22;8243;49.048;8.396;2022-09-29T14:44:06;16.70;38.40
16271;DHT22;8243;49.048;8.396;2022-09-29T14:57:45;16.70;39.10
16271;DHT22;8243;49.048;8.396;2022-09-29T15:00:17;16.90;41.00
16271;DHT22;8243;49.048;8.396;2022-09-29T15:02:46;17.00;41.30
16271;DHT22;8243;49.048;8.396;2022-09-29T15:05:13;16.80;41.50
16271;DHT22;8243;49.048;8.396;2022-09-29T15:07:42;16.50;44.30
16271;DHT22;8243;49.048;8.396;2022-09-29T15:10:27;16.30;45.70
16271;DHT22;8243;49.048;8.396;2022-09-29T15:13:23;16.30;46.20
16271;DHT22;8243;49.048;8.396;2022-09-29T15:15:55;16.30;46.80
16271;DHT22;8243;49.048;8.396;2022-09-29T15:21:06;16.40;44.20
16271;DHT22;8243;49.048;8.396;2022-09-29T15:26:27;16.10;44.40
16271;DHT22;8243;49.048;8.396;2022-09-29T15:28:56;15.90;45.40
16271;DHT22;8243;49.048;8.396;2022-09-29T15:31:27;15.90;46.40
16271;DHT22;8243;49.048;8.396;2022-09-29T15:33:53;15.80;47.80
16271;DHT22;8243;49.048;8.396;2022-09-29T15:36:20;15.80;44.90
16271;DHT22;8243;49.048;8.396;2022-09-29T15:38:53;15.60;46.30
16271;DHT22;8243;49.048;8.396;2022-09-29T15:41:21;15.40;47.50
16271;DHT22;8243;49.048;8.396;2022-09-29T15:49:21;14.90;55.30
16271;DHT22;8243;49.048;8.396;2022-09-29T15:52:11;14.80;59.70
16271;DHT22;8243;49.048;8.396;2022-09-29T15:54:40;14.80;63.60
16271;DHT22;8243;49.048;8.396;2022-09-29T15:57:46;14.70;64.30
16271;DHT22;8243;49.048;8.396;2022-09-29T16:02:51;14.70;77.70
16271;DHT22;8243;49.048;8.396;2022-09-29T16:05:20;14.70;83.60
16271;DHT22;8243;49.048;8.396;2022-09-29T16:07:52;14.60;84.60
16271;DHT22;8243;49.048;8.396;2022-09-29T16:10:20;14.60;83.80
16271;DHT22;8243;49.048;8.396;2022-09-29T16:12:53;14.50;84.80
16271;DHT22;8243;49.048;8.396;2022-09-29T16:17:50;14.50;82.70
16271;DHT22;8243;49.048;8.396;2022-09-29T16:20:29;14.40;82.90
16271;DHT22;8243;49.048;8.396;2022-09-29T16:22:56;14.40;80.40
16271;DHT22;8243;49.048;8.396;2022-09-29T16:25:29;14.30;81.70
16271;DHT22;8243;49.048;8.396;2022-09-29T16:27:58;14.20;84.80
16271;DHT22;8243;49.048;8.396;2022-09-29T16:30:35;14.20;84.20
16271;DHT22;8243;49.048;8.396;2022-09-29T16:33:19;14.10;88.00
16271;DHT22;8243;49.048;8.396;2022-09-29T16:38:34;14.00;91.60
16271;DHT22;8243;49.048;8.396;2022-09-29T16:41:49;14.00;92.50
16271;DHT22;8243;49.048;8.396;2022-09-29T16:44:14;14.00;92.90
16271;DHT22;8243;49.048;8.396;2022-09-29T16:46:47;14.00;96.70
16271;DHT22;8243;49.048;8.396;2022-09-29T16:49:19;14.00;97.00
16271;DHT22;8243;49.048;8.396;2022-09-29T16:51:46;13.90;98.30
16271;DHT22;8243;49.048;8.396;2022-09-29T16:54:20;13.80;96.80
16271;DHT22;8243;49.048;8.396;2022-09-29T16:56:48;13.30;80.10
16271;DHT22;8243;49.048;8.396;2022-09-29T16:59:24;13.00;83.90
16271;DHT22;8243;49.048;8.396;2022-09-29T17:01:49;12.80;90.40
16271;DHT22;8243;49.048;8.396;2022-09-29T17:04:16;12.50;97.70
16271;DHT22;8243;49.048;8.396;2022-09-29T17:06:46;12.40;99.90
16271;DHT22;8243;49.048;8.396;2022-09-29T17:09:22;12.20;99.90
16271;DHT22;8243;49.048;8.396;2022-09-29T17:11:50;11.90;99.90
16271;DHT22;8243;49.048;8.396;2022-09-29T17:14:17;11.80;99.90
16271;DHT22;8243;49.048;8.396;2022-09-29T17:16:43;11.70;99.90
16271;DHT22;8243;49.048;8.396;2022-09-29T17:19:10;11.50;99.90
16271;DHT22;8243;49.048;8.396;2022-09-29T17:21:36;11.40;99.90
16271;DHT22;8243;49.048;8.396;2022-09-29T17:24:02;11.30;99.90
16271;DHT22;8243;49.048;8.396;2022-09-29T17:26:44;11.20;99.90
16271;DHT22;8243;49.048;8.396;2022-09-29T17:29:28;11.10;99.90
16271;DHT22;8243;49.048;8.396;2022-09-29T17:31:55;11.10;99.90
16271;DHT22;8243;49.048;8.396;2022-09-29T17:34:20;10.90;99.90
16271;DHT22;8243;49.048;8.396;2022-09-29T17:36:55;10.80;99.90
16271;DHT22;8243;49.048;8.396;2022-09-29T17:39:26;10.80;99.90
16271;DHT22;8243;49.048;8.396;2022-09-29T17:41:52;10.80;99.90
16271;DHT22;8243;49.048;8.396;2022-09-29T17:44:18;10.80;99.90
16271;DHT22;8243;49.048;8.396;2022-09-29T17:46:44;10.80;99.90
16271;DHT22;8243;49.048;8.396;2022-09-29T17:49:13;10.70;99.90
16271;DHT22;8243;49.048;8.396;2022-09-29T17:51:40;10.70;99.90
16271;DHT22;8243;49.048;8.396;2022-09-29T17:54:06;10.60;99.90
16271;DHT22;8243;49.048;8.396;2022-09-29T17:56:38;10.50;99.90
16271;DHT22;8243;49.048;8.396;2022-09-29T17:59:04;10.50;99.90
16271;DHT22;8243;49.048;8.396;2022-09-29T18:01:32;10.40;99.90
16271;DHT22;8243;49.048;8.396;2022-09-29T18:04:01;10.40;99.90
16271;DHT22;8243;49.048;8.396;2022-09-29T18:06:27;10.40;99.90
16271;DHT22;8243;49.048;8.396;2022-09-29T18:08:54;10.40;99.90
16271;DHT22;8243;49.048;8.396;2022-09-29T18:11:22;10.40;99.90
16271;DHT22;8243;49.048;8.396;2022-09-29T18:13:50;10.40;99.90
16271;DHT22;8243;49.048;8.396;2022-09-29T18:16:18;10.30;99.90
16271;DHT22;8243;49.048;8.396;2022-09-29T18:18:45;10.30;99.90
16271;DHT22;8243;49.048;8.396;2022-09-29T18:21:11;10.40;99.90
16271;DHT22;8243;49.048;8.396;2022-09-29T18:23:37;10.40;99.90
16271;DHT22;8243;49.048;8.396;2022-09-29T18:26:05;10.30;99.90
16271;DHT22;8243;49.048;8.396;2022-09-29T18:28:31;10.30;99.90
16271;DHT22;8243;49.048;8.396;2022-09-29T18:31:03;10.30;99.90
16271;DHT22;8243;49.048;8.396;2022-09-29T18:33:32;10.30;99.90
16271;DHT22;8243;49.048;8.396;2022-09-29T18:35:58;10.30;99.90
16271;DHT22;8243;49.048;8.396;2022-09-29T18:38:25;10.40;99.90
16271;DHT22;8243;49.048;8.396;2022-09-29T18:40:51;10.40;99.90
16271;DHT22;8243;49.048;8.396;2022-09-29T18:43:21;10.30;99.90
16271;DHT22;8243;49.048;8.396;2022-09-29T18:45:51;10.40;99.90
16271;DHT22;8243;49.048;8.396;2022-09-29T18:48:17;10.40;99.90
16271;DHT22;8243;49.048;8.396;2022-09-29T18:50:47;10.40;99.90
16271;DHT22;8243;49.048;8.396;2022-09-29T18:53:17;10.40;99.90
16271;DHT22;8243;49.048;8.396;2022-09-29T18:55:44;10.50;99.90
16271;DHT22;8243;49.048;8.396;2022-09-29T18:58:18;10.40;99.90
16271;DHT22;8243;49.048;8.396;2022-09-29T19:00:48;10.40;99.90
16271;DHT22;8243;49.048;8.396;2022-09-29T19:03:17;10.30;99.90
16271;DHT22;8243;49.048;8.396;2022-09-29T19:05:44;10.20;99.90
16271;DHT22;8243;49.048;8.396;2022-09-29T19:08:12;10.20;99.90
16271;DHT22;8243;49.048;8.396;2022-09-29T19:10:38;10.20;99.90
16271;DHT22;8243;49.048;8.396;2022-09-29T19:13:08;10.10;99.90
16271;DHT22;8243;49.048;8.396;2022-09-29T19:15:38;10.10;99.90
16271;DHT22;8243;49.048;8.396;2022-09-29T19:18:05;10.10;99.90
16271;DHT22;8243;49.048;8.396;2022-09-29T19:20:32;10.20;99.90
16271;DHT22;8243;49.048;8.396;2022-09-29T19:22:58;10.10;99.90
16271;DHT22;8243;49.048;8.396;2022-09-29T19:25:29;10.10;99.90
16271;DHT22;8243;49.048;8.396;2022-09-29T19:27:56;10.10;99.90